CST,Max TemperatureF,Mean TemperatureF,Min TemperatureF,Max Dew PointF,MeanDew PointF,Min DewpointF,Max Humidity, Mean Humidity, Min Humidity, Max Sea Level PressureIn, Mean Sea Level PressureIn, Min Sea Level PressureIn, Max VisibilityMiles, Mean VisibilityMiles, Min VisibilityMiles, Max Wind SpeedMPH, Mean Wind SpeedMPH, Max Gust SpeedMPH,PrecipitationIn, CloudCover, Events, WindDirDegrees
2013-1-1,23,14,4,18,12,2,90,79,63,30.28,30.23,30.14,10,10,7,9,6,,0.00,2,,321
2013-1-2,31,16,2,17,11,-1,89,72,54,30.25,30.20,30.14,10,10,7,9,5,,0.00,0,,207
2013-1-3,35,28,20,27,23,14,93,79,63,30.40,30.30,30.18,10,9,5,13,7,,0.00,4,,268
2013-1-4,36,24,12,23,19,10,93,73,58,30.39,30.33,30.28,10,10,7,17,6,24,0.00,0,,225
2013-1-5,39,32,24,34,28,20,91,78,70,30.28,30.18,30.06,10,10,7,15,7,21,0.02,5,Rain,205
2013-1-6,39,31,23,32,23,20,89,75,62,30.36,30.25,30.05,10,10,7,15,9,24,0.00,3,,269
2013-1-7,44,33,22,30,25,19,89,73,54,30.37,30.25,30.13,10,10,10,13,7,18,0.00,0,,174
2013-1-8,49,40,32,31,28,25,75,64,46,30.16,30.11,30.06,10,10,10,10,6,,0.00,1,,176
2013-1-9,52,43,34,36,33,30,84,67,47,30.49,30.36,30.13,10,10,10,17,9,17,0.00,0,,279
2013-1-10,48,41,34,48,37,28,97,86,65,30.46,30.13,29.78,10,5,0,10,6,16,0.67,6,Fog-Rain-Thunderstorm,89
2013-1-11,60,54,47,51,48,46,97,80,64,29.84,29.77,29.71,10,9,0,18,9,26,0.01,3,Fog,189
2013-1-12,56,42,28,47,34,26,93,72,52,30.01,29.92,29.75,10,9,2,17,10,21,0.06,4,Rain,299
2013-1-13,28,23,18,26,16,13,91,78,68,30.36,30.15,29.95,10,10,10,13,8,17,0.06,5,,305
2013-1-14,27,21,15,17,14,10,90,78,61,30.50,30.44,30.36,10,10,10,9,2,,0.00,0,,341
2013-1-15,29,21,13,22,16,10,93,78,65,30.43,30.32,30.15,10,10,10,8,3,,0.00,0,,26
2013-1-16,39,28,16,26,20,14,91,70,49,30.16,30.08,29.99,10,10,10,21,6,26,0.00,1,,234
2013-1-17,35,30,26,32,24,18,92,73,50,30.47,30.33,30.12,10,10,10,18,8,22,0.00,1,,324
2013-1-18,52,40,27,31,25,21,78,58,39,30.47,30.26,30.06,10,10,10,20,9,28,0.00,0,,193
2013-1-19,57,49,41,36,32,27,67,53,43,30.13,30.00,29.89,10,10,7,23,15,30,0.00,0,,239
2013-1-20,40,30,19,30,13,9,80,60,45,30.37,30.31,30.14,10,10,10,20,10,26,0.00,3,,325
2013-1-21,19,16,12,14,1,-6,78,55,38,30.39,30.35,30.31,10,10,10,21,11,28,0.00,1,,291
2013-1-22,17,12,8,10,1,-3,79,59,49,30.48,30.40,30.36,10,10,10,12,5,,0.00,5,,299
2013-1-23,38,24,11,22,14,6,89,68,46,30.40,30.26,30.14,10,10,10,21,5,25,0.00,0,,272
2013-1-24,25,18,12,11,6,2,69,55,43,30.62,30.47,30.26,10,10,10,18,11,22,0.00,1,,73
2013-1-25,41,33,25,23,17,10,71,54,39,30.24,30.15,30.08,10,10,10,15,7,20,0.00,4,,249
2013-1-26,36,26,17,23,14,9,77,58,38,30.41,30.33,30.24,10,10,10,12,7,,0.00,0,,75
2013-1-27,50,38,27,49,33,18,96,86,66,30.30,30.07,29.87,10,6,2,22,11,29,0.08,6,Rain,142
2013-1-28,67,58,50,60,55,48,92,86,76,29.94,29.88,29.79,10,8,7,21,8,29,0.00,6,Thunderstorm,173
2013-1-29,67,60,52,60,56,51,96,87,75,29.79,29.61,29.42,10,8,1,18,11,25,1.41,6,Rain-Thunderstorm,172
2013-1-30,52,38,25,51,29,15,97,82,63,29.89,29.57,29.33,10,8,3,23,11,33,0.21,8,Rain-Snow,319
2013-1-31,26,18,9,18,9,-3,70,62,54,30.38,30.07,29.89,10,10,10,17,14,25,0.00,6,Snow,180